Time;durP1;ratioP1;P1;durP2;ratioP2;P2;SDS_P1;SDS_P2;PMS_P1;PMS_P2;Temp;Humidity;BMP_temperature;BMP_pressure;BME280_temperature;BME280_humidity;BME280_pressure;Samples;Min_cycle;Max_cycle;Signal;HPM_P1;HPM_P2
2020/12/16 00:02:14;;;;;;;2.42;2.33;;;;;;;;;;4992507;28;20233;-64
2020/12/16 00:04:40;;;;;;;1.63;1.15;;;;;;;;;;4992563;28;20541;-64
2020/12/16 00:07:06;;;;;;;1.40;1.30;;;;;;;;;;5008318;28;20187;-65
2020/12/16 00:09:32;;;;;;;1.52;1.50;;;;;;;;;;5011178;28;20456;-64
2020/12/16 00:11:58;;;;;;;1.43;1.37;;;;;;;;;;4995680;28;20184;-64
2020/12/16 00:14:24;;;;;;;1.37;1.27;;;;;;;;;;5008039;28;20519;-64
2020/12/16 00:16:50;;;;;;;1.23;1.20;;;;;;;;;;5011736;28;20514;-64
2020/12/16 00:19:16;;;;;;;1.00;0.70;;;;;;;;;;4994297;28;20829;-64
2020/12/16 00:21:42;;;;;;;1.77;1.67;;;;;;;;;;4992144;28;20446;-64
2020/12/16 00:24:08;;;;;;;4.47;1.80;;;;;;;;;;5010769;28;20428;-64
2020/12/16 00:26:34;;;;;;;2.53;2.33;;;;;;;;;;5015694;28;20408;-64
2020/12/16 00:29:00;;;;;;;1.92;1.83;;;;;;;;;;5000509;28;21039;-64
2020/12/16 00:31:26;;;;;;;1.92;1.73;;;;;;;;;;4995958;28;20175;-64
2020/12/16 00:33:52;;;;;;;1.03;1.03;;;;;;;;;;5009185;28;20208;-64
2020/12/16 00:36:18;;;;;;;1.43;1.43;;;;;;;;;;5013107;28;20480;-64
2020/12/16 00:38:45;;;;;;;1.27;1.17;;;;;;;;;;5015281;28;20836;-63
2020/12/16 00:41:11;;;;;;;3.15;2.70;;;;;;;;;;5007764;28;20212;-64
2020/12/16 00:43:37;;;;;;;2.47;2.17;;;;;;;;;;5015382;28;20415;-64
2020/12/16 00:46:03;;;;;;;1.20;1.20;;;;;;;;;;5006103;28;20181;-64
2020/12/16 00:48:29;;;;;;;1.17;1.17;;;;;;;;;;5005266;28;20213;-64
2020/12/16 00:50:55;;;;;;;1.10;1.10;;;;;;;;;;5007613;28;20237;-64
2020/12/16 00:53:21;;;;;;;3.42;3.15;;;;;;;;;;5004623;28;20925;-64
2020/12/16 00:55:47;;;;;;;4.03;1.77;;;;;;;;;;5012888;28;20220;-64
2020/12/16 00:58:13;;;;;;;1.83;1.73;;;;;;;;;;5004486;28;20460;-64
2020/12/16 01:00:39;;;;;;;1.50;1.40;;;;;;;;;;5014026;28;20178;-64
2020/12/16 01:03:05;;;;;;;1.45;1.35;;;;;;;;;;5014365;28;20670;-64
2020/12/16 01:05:31;;;;;;;0.70;0.70;;;;;;;;;;5004759;28;20178;-64
2020/12/16 01:07:57;;;;;;;1.85;1.75;;;;;;;;;;5001287;28;20184;-64
2020/12/16 01:10:23;;;;;;;2.17;2.03;;;;;;;;;;5014448;28;20620;-64
2020/12/16 01:12:50;;;;;;;0.98;0.98;;;;;;;;;;5010266;28;20192;-64
2020/12/16 01:15:17;;;;;;;1.85;1.75;;;;;;;;;;4996089;28;20224;-64
2020/12/16 01:17:44;;;;;;;1.20;1.20;;;;;;;;;;4999255;28;20216;-64
2020/12/16 01:20:10;;;;;;;2.22;2.00;;;;;;;;;;5012437;28;20216;-64
2020/12/16 01:22:37;;;;;;;2.42;2.33;;;;;;;;;;5011103;28;20214;-64
2020/12/16 01:25:04;;;;;;;2.13;2.05;;;;;;;;;;4994813;28;20178;-64
2020/12/16 01:27:30;;;;;;;1.92;1.83;;;;;;;;;;4996529;28;20273;-64
2020/12/16 01:29:56;;;;;;;2.97;2.63;;;;;;;;;;4998860;28;20238;-64
2020/12/16 01:32:22;;;;;;;1.57;1.47;;;;;;;;;;4995867;28;20413;-64
2020/12/16 01:34:48;;;;;;;1.20;1.20;;;;;;;;;;5012810;28;20464;-64
2020/12/16 01:37:14;;;;;;;2.03;1.93;;;;;;;;;;5013645;28;20546;-64
2020/12/16 01:39:40;;;;;;;1.80;1.25;;;;;;;;;;5006014;28;20441;-64
2020/12/16 01:42:06;;;;;;;1.40;1.40;;;;;;;;;;5009854;28;20213;-64
2020/12/16 01:44:32;;;;;;;1.35;1.35;;;;;;;;;;5008013;28;20215;-64
2020/12/16 01:46:59;;;;;;;2.65;2.55;;;;;;;;;;4997274;28;20189;-64
2020/12/16 01:49:26;;;;;;;1.60;1.50;;;;;;;;;;5013855;28;20280;-64
2020/12/16 01:51:54;;;;;;;3.03;2.13;;;;;;;;;;5012480;28;20228;-64
2020/12/16 01:54:22;;;;;;;2.30;2.10;;;;;;;;;;5011358;28;20180;-64
2020/12/16 01:56:50;;;;;;;1.52;1.45;;;;;;;;;;4996123;28;20198;-64
2020/12/16 01:59:17;;;;;;;2.00;2.00;;;;;;;;;;4994119;28;20224;-65
2020/12/16 02:01:45;;;;;;;2.67;2.25;;;;;;;;;;5006196;28;20660;-64
2020/12/16 02:04:12;;;;;;;2.17;1.98;;;;;;;;;;4994268;28;20170;-64
2020/12/16 02:06:39;;;;;;;1.38;1.35;;;;;;;;;;4994331;28;20181;-66
2020/12/16 02:09:07;;;;;;;1.27;1.27;;;;;;;;;;5008974;28;20236;-65
2020/12/16 02:11:33;;;;;;;1.23;1.23;;;;;;;;;;5012042;28;20189;-65
2020/12/16 02:14:00;;;;;;;3.70;3.40;;;;;;;;;;5011983;28;20265;-65
2020/12/16 02:16:26;;;;;;;1.52;1.45;;;;;;;;;;4998072;28;20712;-65
2020/12/16 02:18:52;;;;;;;2.83;1.50;;;;;;;;;;5006240;28;20618;-65
2020/12/16 02:21:19;;;;;;;1.35;1.25;;;;;;;;;;5013198;28;20256;-65
2020/12/16 02:23:46;;;;;;;1.58;1.48;;;;;;;;;;5001365;28;20186;-65
2020/12/16 02:26:13;;;;;;;1.95;1.85;;;;;;;;;;4993920;28;20188;-65
2020/12/16 02:28:58;;;;;;;0.88;0.82;;;;;;;;;;4993481;28;20744;-65
2020/12/16 02:31:25;;;;;;;2.83;1.73;;;;;;;;;;5011089;28;20193;-65
2020/12/16 02:33:51;;;;;;;1.35;1.35;;;;;;;;;;5001117;28;20217;-65
2020/12/16 02:36:17;;;;;;;1.93;1.83;;;;;;;;;;4999403;28;20712;-65
2020/12/16 02:38:46;;;;;;;2.03;1.93;;;;;;;;;;5013055;28;20434;-63
2020/12/16 02:41:12;;;;;;;1.17;1.15;;;;;;;;;;5011460;28;20437;-63
2020/12/16 02:43:38;;;;;;;1.10;1.08;;;;;;;;;;5012328;28;20259;-63
2020/12/16 02:46:05;;;;;;;2.28;1.67;;;;;;;;;;5011506;28;20228;-64
2020/12/16 02:48:31;;;;;;;3.80;3.58;;;;;;;;;;5010197;28;20240;-65
2020/12/16 02:50:57;;;;;;;3.45;3.13;;;;;;;;;;4993198;28;20208;-65
2020/12/16 02:53:23;;;;;;;1.77;1.70;;;;;;;;;;5010603;28;20189;-64
2020/12/16 02:55:49;;;;;;;2.53;2.42;;;;;;;;;;5011716;28;20181;-65
2020/12/16 02:58:15;;;;;;;1.93;1.83;;;;;;;;;;4996618;28;20213;-65
2020/12/16 03:00:41;;;;;;;2.17;2.07;;;;;;;;;;4996282;28;20924;-65
2020/12/16 03:03:07;;;;;;;2.67;2.53;;;;;;;;;;5012902;28;20445;-65
2020/12/16 03:05:33;;;;;;;1.17;1.03;;;;;;;;;;5007438;28;20449;-65
2020/12/16 03:07:59;;;;;;;2.25;2.15;;;;;;;;;;5005349;28;20420;-64
2020/12/16 03:10:25;;;;;;;2.35;2.25;;;;;;;;;;5011509;28;20189;-62
2020/12/16 03:12:51;;;;;;;1.03;1.03;;;;;;;;;;5012659;28;20180;-64
2020/12/16 03:15:17;;;;;;;1.20;1.20;;;;;;;;;;5008512;28;20488;-65
2020/12/16 03:17:43;;;;;;;2.73;2.23;;;;;;;;;;4992979;28;20497;-65
2020/12/16 03:20:09;;;;;;;2.25;2.15;;;;;;;;;;4994185;28;20451;-64
2020/12/16 03:22:35;;;;;;;2.50;2.30;;;;;;;;;;5012502;28;20184;-65
2020/12/16 03:25:01;;;;;;;2.33;2.13;;;;;;;;;;5010664;28;20444;-65
2020/12/16 03:27:27;;;;;;;1.77;1.73;;;;;;;;;;5012458;28;20506;-65
2020/12/16 03:29:53;;;;;;;1.93;1.70;;;;;;;;;;5010338;28;20284;-64
2020/12/16 03:32:19;;;;;;;2.63;2.43;;;;;;;;;;4992691;28;20433;-65
2020/12/16 03:34:45;;;;;;;2.20;2.10;;;;;;;;;;4993691;28;20424;-64
2020/12/16 03:37:11;;;;;;;2.30;2.20;;;;;;;;;;5008749;28;20515;-65
2020/12/16 03:39:37;;;;;;;2.03;1.90;;;;;;;;;;5009269;28;20910;-65
2020/12/16 03:42:03;;;;;;;1.70;1.40;;;;;;;;;;4992741;28;20534;-64
2020/12/16 03:44:29;;;;;;;2.08;1.98;;;;;;;;;;5002804;28;20331;-65
2020/12/16 03:46:55;;;;;;;2.40;2.30;;;;;;;;;;5012057;28;20183;-65
2020/12/16 03:49:21;;;;;;;1.92;1.83;;;;;;;;;;5002470;28;20207;-65
2020/12/16 03:51:51;;;;;;;1.30;1.17;;;;;;;;;;4992314;28;20262;-64
2020/12/16 03:54:17;;;;;;;4.25;3.15;;;;;;;;;;5001012;28;20424;-64
2020/12/16 03:56:43;;;;;;;1.83;1.75;;;;;;;;;;5008183;28;20209;-65
2020/12/16 03:59:09;;;;;;;2.43;2.20;;;;;;;;;;4992133;28;20193;-65
2020/12/16 04:01:35;;;;;;;2.03;1.73;;;;;;;;;;5009922;28;20510;-65
2020/12/16 04:04:04;;;;;;;2.30;2.13;;;;;;;;;;5001400;28;20727;-64
2020/12/16 04:06:30;;;;;;;2.05;1.95;;;;;;;;;;5011883;28;20213;-64
2020/12/16 04:08:56;;;;;;;3.05;2.75;;;;;;;;;;5008171;28;20224;-64
2020/12/16 04:11:22;;;;;;;2.97;2.30;;;;;;;;;;5002469;28;20177;-65
2020/12/16 04:13:48;;;;;;;2.40;2.20;;;;;;;;;;5011818;28;20179;-64
2020/12/16 04:16:18;;;;;;;2.07;1.87;;;;;;;;;;5010887;28;20547;-65
2020/12/16 04:18:44;;;;;;;4.10;2.33;;;;;;;;;;5011449;28;20822;-64
2020/12/16 04:21:10;;;;;;;1.63;1.52;;;;;;;;;;4996552;28;20661;-65
2020/12/16 04:23:36;;;;;;;3.00;2.80;;;;;;;;;;4991976;28;20210;-65
2020/12/16 04:26:02;;;;;;;2.47;2.33;;;;;;;;;;5009567;28;20288;-65
2020/12/16 04:28:29;;;;;;;4.43;3.47;;;;;;;;;;5011585;28;20316;-65
2020/12/16 04:30:55;;;;;;;3.55;3.25;;;;;;;;;;5007365;28;20184;-64
2020/12/16 04:33:21;;;;;;;1.13;1.13;;;;;;;;;;5011696;28;20173;-65
2020/12/16 04:35:47;;;;;;;2.03;1.83;;;;;;;;;;5008747;28;20916;-64
2020/12/16 04:38:13;;;;;;;2.05;1.95;;;;;;;;;;5000479;28;20556;-64
2020/12/16 04:40:39;;;;;;;1.55;1.45;;;;;;;;;;5000350;28;20748;-64
2020/12/16 04:43:09;;;;;;;2.17;2.08;;;;;;;;;;4996296;28;20547;-64
2020/12/16 04:45:38;;;;;;;1.20;1.15;;;;;;;;;;4994266;28;20181;-64
2020/12/16 04:48:06;;;;;;;1.63;1.58;;;;;;;;;;5008159;28;20664;-65
2020/12/16 04:50:32;;;;;;;1.73;1.60;;;;;;;;;;5004718;28;20681;-65
2020/12/16 04:53:06;;;;;;;2.33;2.20;;;;;;;;;;5005988;28;20223;-65
2020/12/16 04:55:32;;;;;;;4.53;2.13;;;;;;;;;;4996418;28;20608;-64
2020/12/16 04:58:00;;;;;;;3.25;2.80;;;;;;;;;;4996902;28;20240;-64
2020/12/16 05:00:26;;;;;;;2.03;1.92;;;;;;;;;;5011088;28;20199;-64
2020/12/16 05:02:57;;;;;;;2.25;1.40;;;;;;;;;;5002742;28;20188;-65
2020/12/16 05:05:23;;;;;;;1.35;1.35;;;;;;;;;;4992001;28;20676;-64
2020/12/16 05:07:50;;;;;;;1.95;1.73;;;;;;;;;;4993382;28;20190;-64
2020/12/16 05:10:16;;;;;;;2.00;1.90;;;;;;;;;;4993858;28;20189;-65
2020/12/16 05:12:42;;;;;;;2.08;1.95;;;;;;;;;;5007677;28;20181;-65
2020/12/16 05:15:21;;;;;;;2.22;2.08;;;;;;;;;;5011558;28;20247;-65
2020/12/16 05:18:03;;;;;;;3.63;3.42;;;;;;;;;;5007302;28;20219;-65
2020/12/16 05:20:29;;;;;;;1.35;1.35;;;;;;;;;;5078225;22;20317;-66
2020/12/16 05:22:59;;;;;;;2.10;2.00;;;;;;;;;;5034006;28;20263;-66
2020/12/16 05:25:25;;;;;;;1.67;1.58;;;;;;;;;;5036962;28;20410;-66
2020/12/16 05:27:52;;;;;;;2.10;2.00;;;;;;;;;;5054259;28;20218;-66
2020/12/16 05:30:18;;;;;;;2.83;2.72;;;;;;;;;;5053934;28;20197;-66
2020/12/16 05:32:44;;;;;;;1.85;1.75;;;;;;;;;;5054071;28;20185;-66
2020/12/16 05:35:20;;;;;;;2.50;2.30;;;;;;;;;;5042278;28;20306;-66
2020/12/16 05:37:46;;;;;;;2.05;1.83;;;;;;;;;;5033795;28;20469;-66
2020/12/16 05:40:14;;;;;;;2.08;1.98;;;;;;;;;;5033390;28;20199;-66
2020/12/16 05:42:40;;;;;;;1.63;1.55;;;;;;;;;;5033996;28;20546;-66
2020/12/16 05:45:08;;;;;;;3.90;2.47;;;;;;;;;;5033692;28;20228;-66
2020/12/16 05:47:34;;;;;;;3.58;3.25;;;;;;;;;;5033802;28;20229;-66
2020/12/16 05:50:00;;;;;;;2.50;2.40;;;;;;;;;;5033172;28;20284;-66
2020/12/16 05:52:27;;;;;;;1.98;1.88;;;;;;;;;;5034138;28;20176;-66
2020/12/16 05:54:53;;;;;;;0.80;0.80;;;;;;;;;;5034070;28;20180;-66
2020/12/16 05:57:25;;;;;;;1.63;1.52;;;;;;;;;;5034106;28;20250;-66
2020/12/16 06:00:01;;;;;;;1.52;1.42;;;;;;;;;;5033256;28;20192;-66
2020/12/16 06:02:32;;;;;;;3.88;3.30;;;;;;;;;;5033664;28;20286;-66
2020/12/16 06:04:58;;;;;;;2.45;1.63;;;;;;;;;;5033716;28;20179;-66
2020/12/16 06:07:26;;;;;;;2.35;2.15;;;;;;;;;;5033810;28;20215;-66
2020/12/16 06:09:52;;;;;;;1.65;1.65;;;;;;;;;;5033360;28;20627;-66
2020/12/16 06:12:18;;;;;;;6.95;3.83;;;;;;;;;;5032298;28;20184;-66
2020/12/16 06:14:48;;;;;;;1.47;1.37;;;;;;;;;;5033503;28;20573;-66
2020/12/16 06:17:15;;;;;;;2.17;2.08;;;;;;;;;;5033284;28;20468;-66
2020/12/16 06:19:44;;;;;;;2.60;2.50;;;;;;;;;;5032800;28;20207;-66
2020/12/16 06:22:11;;;;;;;1.20;1.20;;;;;;;;;;5032635;28;20167;-66
2020/12/16 06:24:44;;;;;;;3.13;2.92;;;;;;;;;;5033292;28;20168;-66
2020/12/16 06:27:11;;;;;;;2.05;1.95;;;;;;;;;;5033268;28;20183;-66
2020/12/16 06:29:49;;;;;;;2.03;1.92;;;;;;;;;;5032664;28;20214;-66
2020/12/16 06:32:25;;;;;;;1.55;1.55;;;;;;;;;;5033206;28;20180;-66
2020/12/16 06:34:53;;;;;;;1.38;1.35;;;;;;;;;;5033158;28;20185;-66
2020/12/16 06:37:19;;;;;;;2.45;2.35;;;;;;;;;;5032978;28;20215;-66
2020/12/16 06:39:45;;;;;;;3.55;3.20;;;;;;;;;;5032708;28;20233;-66
2020/12/16 06:42:11;;;;;;;2.47;2.33;;;;;;;;;;5032913;28;20210;-66
2020/12/16 06:44:37;;;;;;;2.37;2.27;;;;;;;;;;5031754;28;20278;-66
2020/12/16 06:47:03;;;;;;;1.95;1.85;;;;;;;;;;5032902;28;20906;-66
2020/12/16 06:49:30;;;;;;;1.15;1.15;;;;;;;;;;5032441;28;20221;-66
2020/12/16 06:51:58;;;;;;;4.22;2.78;;;;;;;;;;5032746;28;20174;-66
2020/12/16 06:54:25;;;;;;;1.45;1.35;;;;;;;;;;5032669;28;20542;-66
2020/12/16 06:57:10;;;;;;;1.35;1.35;;;;;;;;;;5032580;28;20631;-66
2020/12/16 06:59:43;;;;;;;2.95;2.28;;;;;;;;;;5032376;28;20196;-66
2020/12/16 07:02:10;;;;;;;1.60;1.50;;;;;;;;;;5031357;28;20170;-66
2020/12/16 07:04:36;;;;;;;0.93;0.93;;;;;;;;;;5032544;28;20171;-66
2020/12/16 07:07:02;;;;;;;1.30;1.30;;;;;;;;;;5032365;28;20181;-66
2020/12/16 07:09:32;;;;;;;2.85;1.90;;;;;;;;;;5032149;28;20203;-66
2020/12/16 07:11:58;;;;;;;2.33;2.22;;;;;;;;;;5032485;28;20271;-66
2020/12/16 07:14:27;;;;;;;3.27;2.83;;;;;;;;;;5032434;28;20262;-66
2020/12/16 07:17:04;;;;;;;2.38;2.17;;;;;;;;;;5032196;28;20511;-66
2020/12/16 07:19:30;;;;;;;1.50;1.40;;;;;;;;;;5031837;28;20291;-66
2020/12/16 07:21:56;;;;;;;3.20;2.30;;;;;;;;;;5032236;28;20197;-66
2020/12/16 07:24:23;;;;;;;2.80;1.65;;;;;;;;;;5032281;28;20216;-66
2020/12/16 07:26:50;;;;;;;2.17;2.08;;;;;;;;;;5032185;28;20176;-66
2020/12/16 07:29:22;;;;;;;1.88;1.73;;;;;;;;;;5030646;28;20201;-66
2020/12/16 07:32:05;;;;;;;2.15;2.05;;;;;;;;;;5030709;28;20176;-66
2020/12/16 07:34:32;;;;;;;1.42;1.33;;;;;;;;;;5032158;28;20210;-66
2020/12/16 07:37:04;;;;;;;2.30;2.10;;;;;;;;;;5030499;28;20253;-66
2020/12/16 07:39:31;;;;;;;2.38;2.25;;;;;;;;;;5031581;28;20690;-66
2020/12/16 07:41:58;;;;;;;1.55;1.13;;;;;;;;;;5032309;28;20488;-66
2020/12/16 07:44:24;;;;;;;2.38;2.28;;;;;;;;;;5031775;28;20251;-66
2020/12/16 07:46:51;;;;;;;1.88;1.77;;;;;;;;;;5032171;28;20173;-66
2020/12/16 07:49:18;;;;;;;1.58;1.48;;;;;;;;;;5031961;28;20239;-66
2020/12/16 07:51:44;;;;;;;2.28;2.15;;;;;;;;;;5031455;28;20190;-66
2020/12/16 07:54:10;;;;;;;1.50;1.42;;;;;;;;;;5031922;28;20208;-66
2020/12/16 07:56:36;;;;;;;1.15;1.15;;;;;;;;;;5031234;28;20179;-66
2020/12/16 07:59:13;;;;;;;1.35;1.23;;;;;;;;;;5031165;28;20568;-66
2020/12/16 08:01:39;;;;;;;1.25;1.23;;;;;;;;;;5038383;28;20170;-66
2020/12/16 08:04:05;;;;;;;3.08;2.65;;;;;;;;;;5045226;28;20190;-66
2020/12/16 08:06:31;;;;;;;2.45;2.17;;;;;;;;;;5042981;28;20179;-66
2020/12/16 08:08:57;;;;;;;0.80;0.80;;;;;;;;;;5033096;28;20547;-66
2020/12/16 08:11:25;;;;;;;1.75;1.70;;;;;;;;;;5033775;28;20172;-66
2020/12/16 08:13:51;;;;;;;2.15;2.03;;;;;;;;;;5031457;28;20206;-66
2020/12/16 08:16:17;;;;;;;2.95;2.08;;;;;;;;;;5032092;28;20188;-66
2020/12/16 08:18:44;;;;;;;1.27;1.25;;;;;;;;;;5031460;28;20222;-66
2020/12/16 08:21:20;;;;;;;1.52;1.42;;;;;;;;;;5031282;28;20697;-66
2020/12/16 08:23:47;;;;;;;2.35;2.05;;;;;;;;;;5031029;28;20186;-66
2020/12/16 08:26:13;;;;;;;1.30;1.30;;;;;;;;;;5031068;28;20183;-66
2020/12/16 08:28:40;;;;;;;0.90;0.90;;;;;;;;;;5031174;28;20171;-65
2020/12/16 08:31:06;;;;;;;2.45;2.35;;;;;;;;;;5031028;28;20176;-65
2020/12/16 08:33:32;;;;;;;2.65;2.45;;;;;;;;;;5030863;28;20266;-65
2020/12/16 08:36:03;;;;;;;1.30;0.95;;;;;;;;;;5030514;28;20514;-65
2020/12/16 08:38:31;;;;;;;1.80;1.70;;;;;;;;;;5030980;28;20203;-65
2020/12/16 08:40:58;;;;;;;2.30;2.20;;;;;;;;;;5031016;28;20265;-65
2020/12/16 08:43:27;;;;;;;0.60;0.60;;;;;;;;;;5031478;28;20214;-65
2020/12/16 08:46:00;;;;;;;1.95;1.63;;;;;;;;;;5034595;28;20703;-65
2020/12/16 08:48:26;;;;;;;2.80;2.25;;;;;;;;;;5035178;28;20195;-65
2020/12/16 08:51:00;;;;;;;1.33;1.33;;;;;;;;;;5033649;28;20201;-65
2020/12/16 08:53:26;;;;;;;3.70;2.35;;;;;;;;;;5033740;28;20176;-65
2020/12/16 08:55:52;;;;;;;1.55;1.38;;;;;;;;;;5034691;28;20198;-65
2020/12/16 08:58:18;;;;;;;1.25;1.15;;;;;;;;;;5033901;28;20207;-65
2020/12/16 09:00:44;;;;;;;2.80;1.67;;;;;;;;;;5034412;28;20196;-65
2020/12/16 09:03:13;;;;;;;1.00;1.00;;;;;;;;;;5034728;28;20906;-65
2020/12/16 09:05:40;;;;;;;1.88;1.20;;;;;;;;;;5035015;28;20411;-66
2020/12/16 09:08:07;;;;;;;2.55;2.25;;;;;;;;;;5034251;28;20269;-65
2020/12/16 09:10:35;;;;;;;1.80;1.33;;;;;;;;;;5033704;28;20196;-65
2020/12/16 09:13:21;;;;;;;1.40;1.40;;;;;;;;;;5033472;28;20528;-66
2020/12/16 09:15:50;;;;;;;1.30;1.10;;;;;;;;;;5034151;28;20227;-65
2020/12/16 09:18:27;;;;;;;0.95;0.93;;;;;;;;;;5034241;28;20652;-65
2020/12/16 09:20:53;;;;;;;2.25;1.45;;;;;;;;;;5033354;28;20207;-65
2020/12/16 09:23:25;;;;;;;1.30;1.30;;;;;;;;;;5034449;28;20207;-65
2020/12/16 09:25:55;;;;;;;2.03;1.92;;;;;;;;;;5034342;28;20172;-66
2020/12/16 09:28:21;;;;;;;1.08;1.08;;;;;;;;;;5034243;28;20519;-65
2020/12/16 09:30:47;;;;;;;0.95;0.95;;;;;;;;;;5033239;28;20218;-66
2020/12/16 09:33:14;;;;;;;1.80;1.07;;;;;;;;;;5033726;28;20176;-65
2020/12/16 09:35:40;;;;;;;2.10;2.00;;;;;;;;;;5034178;28;20505;-66
2020/12/16 09:38:32;;;;;;;1.25;1.25;;;;;;;;;;5034269;28;20222;-65
2020/12/16 09:40:59;;;;;;;1.38;1.27;;;;;;;;;;5032704;28;20224;-65
2020/12/16 09:43:38;;;;;;;1.15;1.13;;;;;;;;;;5033503;28;20517;-66
2020/12/16 09:46:17;;;;;;;1.25;1.25;;;;;;;;;;5033862;28;20172;-66
2020/12/16 09:48:44;;;;;;;1.60;1.50;;;;;;;;;;5033847;28;20184;-66
2020/12/16 09:51:11;;;;;;;1.58;1.48;;;;;;;;;;5033952;28;20646;-66
2020/12/16 09:53:41;;;;;;;0.85;0.85;;;;;;;;;;5032129;28;20235;-66
2020/12/16 09:56:07;;;;;;;1.65;1.13;;;;;;;;;;5033590;28;20211;-66
2020/12/16 09:58:37;;;;;;;1.15;1.05;;;;;;;;;;5033765;28;20234;-66
2020/12/16 10:01:03;;;;;;;0.90;0.90;;;;;;;;;;5033517;28;20172;-65
2020/12/16 10:03:29;;;;;;;1.25;1.25;;;;;;;;;;5033247;28;20169;-66
2020/12/16 10:05:55;;;;;;;1.25;1.15;;;;;;;;;;5032761;28;20169;-66
2020/12/16 10:08:21;;;;;;;1.93;1.47;;;;;;;;;;5033312;28;20179;-65
2020/12/16 10:10:47;;;;;;;1.67;1.50;;;;;;;;;;5033101;28;20427;-65
2020/12/16 10:13:16;;;;;;;1.83;1.67;;;;;;;;;;5033290;28;20410;-65
2020/12/16 10:15:42;;;;;;;1.00;1.00;;;;;;;;;;5032790;28;20204;-66
2020/12/16 10:18:08;;;;;;;1.50;1.40;;;;;;;;;;5033130;28;20204;-66
2020/12/16 10:20:35;;;;;;;5.40;3.53;;;;;;;;;;5032751;28;20214;-65
2020/12/16 10:23:02;;;;;;;1.50;1.48;;;;;;;;;;5032993;28;20179;-65
2020/12/16 10:25:28;;;;;;;2.65;2.08;;;;;;;;;;5032641;28;20190;-65
2020/12/16 10:27:54;;;;;;;3.28;1.95;;;;;;;;;;5032289;28;20250;-65
2020/12/16 10:30:25;;;;;;;0.80;0.70;;;;;;;;;;5032534;28;20195;-65
2020/12/16 10:32:52;;;;;;;2.50;2.40;;;;;;;;;;5032794;28;20648;-65
2020/12/16 10:35:18;;;;;;;2.88;2.30;;;;;;;;;;5032455;28;20245;-65
2020/12/16 10:37:45;;;;;;;1.40;1.30;;;;;;;;;;5032148;28;20204;-65
2020/12/16 10:40:11;;;;;;;4.32;2.45;;;;;;;;;;5032340;28;20816;-65
2020/12/16 10:42:38;;;;;;;2.30;2.20;;;;;;;;;;5032488;28;20251;-65
2020/12/16 10:45:04;;;;;;;0.82;0.82;;;;;;;;;;5032366;28;20172;-65
2020/12/16 10:47:30;;;;;;;2.05;1.95;;;;;;;;;;5032601;28;20223;-65
2020/12/16 10:49:56;;;;;;;2.38;2.28;;;;;;;;;;5031672;28;20223;-65
2020/12/16 10:52:22;;;;;;;3.57;2.03;;;;;;;;;;5032506;28;20203;-66
2020/12/16 10:54:48;;;;;;;1.50;1.40;;;;;;;;;;5032346;28;20414;-65
2020/12/16 10:57:14;;;;;;;2.15;1.95;;;;;;;;;;5032279;28;20220;-66
2020/12/16 10:59:40;;;;;;;2.33;2.22;;;;;;;;;;5031541;28;20254;-66
2020/12/16 11:02:06;;;;;;;2.10;1.90;;;;;;;;;;5032012;28;20184;-66
2020/12/16 11:04:32;;;;;;;3.00;2.78;;;;;;;;;;5031985;28;20407;-66
2020/12/16 11:06:58;;;;;;;2.47;2.27;;;;;;;;;;5031645;28;20179;-66
2020/12/16 11:09:25;;;;;;;3.80;3.25;;;;;;;;;;5031681;28;20402;-66
2020/12/16 11:11:52;;;;;;;1.25;1.15;;;;;;;;;;5031313;28;20702;-66
2020/12/16 11:14:19;;;;;;;4.85;3.45;;;;;;;;;;5032009;28;20211;-66
2020/12/16 11:16:45;;;;;;;3.78;1.92;;;;;;;;;;5031904;28;20183;-66
2020/12/16 11:19:12;;;;;;;1.77;1.70;;;;;;;;;;5032401;28;20932;-66
2020/12/16 11:21:39;;;;;;;2.35;1.95;;;;;;;;;;5031695;28;20275;-66
2020/12/16 11:24:06;;;;;;;2.25;1.75;;;;;;;;;;5031018;28;20599;-66
2020/12/16 11:26:35;;;;;;;4.53;3.30;;;;;;;;;;5030440;28;20552;-66
2020/12/16 11:29:01;;;;;;;2.92;2.65;;;;;;;;;;5031915;28;20208;-66
2020/12/16 11:31:27;;;;;;;2.23;2.13;;;;;;;;;;5031519;28;20657;-66
2020/12/16 11:33:53;;;;;;;1.73;1.63;;;;;;;;;;5031049;28;20419;-66
2020/12/16 11:36:19;;;;;;;3.33;3.03;;;;;;;;;;5031127;28;20888;-66
2020/12/16 11:38:45;;;;;;;2.70;2.30;;;;;;;;;;5031214;28;20470;-65
2020/12/16 11:41:11;;;;;;;2.83;2.30;;;;;;;;;;5031300;28;20407;-65
2020/12/16 11:43:37;;;;;;;5.93;2.43;;;;;;;;;;5031528;28;20408;-65
2020/12/16 11:46:03;;;;;;;2.50;2.30;;;;;;;;;;5030782;28;20407;-65
2020/12/16 11:48:29;;;;;;;3.10;2.70;;;;;;;;;;5030973;28;20386;-66
2020/12/16 11:50:55;;;;;;;3.37;2.03;;;;;;;;;;5031226;28;20519;-66
2020/12/16 11:53:21;;;;;;;2.30;2.10;;;;;;;;;;5031392;28;20411;-66
2020/12/16 11:55:48;;;;;;;3.60;2.33;;;;;;;;;;5031444;28;20788;-66
2020/12/16 11:58:14;;;;;;;2.43;2.17;;;;;;;;;;5031100;28;20459;-65
2020/12/16 12:00:40;;;;;;;3.03;2.70;;;;;;;;;;5030732;28;20405;-65
2020/12/16 12:03:06;;;;;;;2.30;1.97;;;;;;;;;;5034657;28;20408;-65
2020/12/16 12:05:32;;;;;;;3.77;2.20;;;;;;;;;;5040972;28;20423;-66
2020/12/16 12:07:58;;;;;;;3.20;2.70;;;;;;;;;;5042778;28;20401;-66
2020/12/16 12:10:24;;;;;;;3.50;2.40;;;;;;;;;;5036188;28;20442;-65
2020/12/16 12:12:50;;;;;;;2.20;2.10;;;;;;;;;;5035017;28;20386;-66
2020/12/16 12:15:16;;;;;;;3.20;2.20;;;;;;;;;;5031665;28;20408;-66
2020/12/16 12:17:42;;;;;;;4.40;2.30;;;;;;;;;;5031434;28;20549;-65
2020/12/16 12:20:08;;;;;;;2.93;2.70;;;;;;;;;;5034496;28;20450;-66
2020/12/16 12:22:34;;;;;;;3.37;1.93;;;;;;;;;;5035389;28;20857;-65
2020/12/16 12:25:00;;;;;;;3.67;2.60;;;;;;;;;;5034602;28;20412;-66
2020/12/16 12:27:26;;;;;;;1.80;1.50;;;;;;;;;;5035104;28;20407;-65
2020/12/16 12:29:52;;;;;;;2.60;1.93;;;;;;;;;;5034194;28;20434;-66
2020/12/16 12:32:18;;;;;;;3.30;2.20;;;;;;;;;;5035122;28;20386;-66
2020/12/16 12:34:45;;;;;;;5.20;2.60;;;;;;;;;;5035335;28;20407;-65
2020/12/16 12:37:11;;;;;;;4.80;2.80;;;;;;;;;;5034489;28;20434;-65
2020/12/16 12:39:37;;;;;;;3.20;2.33;;;;;;;;;;5034615;28;20766;-65
2020/12/16 12:42:02;;;;;;;3.00;2.30;;;;;;;;;;5034517;28;20690;-65
2020/12/16 12:44:28;;;;;;;2.77;2.57;;;;;;;;;;5034917;28;20989;-65
2020/12/16 12:46:54;;;;;;;3.17;2.30;;;;;;;;;;5035438;28;20407;-66
2020/12/16 12:49:20;;;;;;;3.47;2.40;;;;;;;;;;5034873;28;20908;-65
2020/12/16 12:51:53;;;;;;;4.40;2.20;;;;;;;;;;5036112;28;20382;-65
2020/12/16 12:54:19;;;;;;;1.50;1.40;;;;;;;;;;5037152;28;20407;-65
2020/12/16 12:56:45;;;;;;;2.20;1.73;;;;;;;;;;5050254;28;20446;-65
2020/12/16 12:59:11;;;;;;;3.53;2.43;;;;;;;;;;5056453;28;20398;-65
2020/12/16 13:01:37;;;;;;;3.80;2.70;;;;;;;;;;5054351;28;20423;-67
2020/12/16 13:04:06;;;;;;;2.23;1.63;;;;;;;;;;5055920;28;20438;-67
2020/12/16 13:06:32;;;;;;;2.87;2.37;;;;;;;;;;5056718;28;20363;-65
2020/12/16 13:08:58;;;;;;;2.40;2.20;;;;;;;;;;5057139;28;20423;-65
2020/12/16 13:11:24;;;;;;;1.60;1.43;;;;;;;;;;5055115;28;20416;-65
2020/12/16 13:13:50;;;;;;;3.43;3.23;;;;;;;;;;5034043;28;20787;-65
2020/12/16 13:16:16;;;;;;;3.00;2.30;;;;;;;;;;5034279;28;20570;-66
2020/12/16 13:18:42;;;;;;;2.20;1.87;;;;;;;;;;5034202;28;20466;-65
2020/12/16 13:21:08;;;;;;;4.10;3.53;;;;;;;;;;5034412;28;20807;-65
2020/12/16 13:23:35;;;;;;;2.47;2.27;;;;;;;;;;5034383;28;20468;-65
2020/12/16 13:26:03;;;;;;;2.20;1.77;;;;;;;;;;5033541;28;20411;-65
2020/12/16 13:28:30;;;;;;;2.87;2.67;;;;;;;;;;5034128;28;20893;-65
2020/12/16 13:30:56;;;;;;;4.27;3.47;;;;;;;;;;5033392;28;20400;-67
2020/12/16 13:33:22;;;;;;;2.55;2.28;;;;;;;;;;5034127;28;20414;-67
2020/12/16 13:35:48;;;;;;;2.93;2.60;;;;;;;;;;5034121;28;20505;-64
2020/12/16 13:38:14;;;;;;;3.50;2.63;;;;;;;;;;5033198;28;20961;-66
2020/12/16 13:40:40;;;;;;;3.40;2.00;;;;;;;;;;5033652;28;20431;-65
2020/12/16 13:43:06;;;;;;;4.87;2.10;;;;;;;;;;5033982;28;20400;-65
2020/12/16 13:45:32;;;;;;;1.30;1.20;;;;;;;;;;5033918;28;20380;-65
2020/12/16 13:47:58;;;;;;;3.67;2.53;;;;;;;;;;5032107;28;20547;-65
2020/12/16 13:50:24;;;;;;;2.23;1.73;;;;;;;;;;5033178;28;20438;-65
2020/12/16 13:52:50;;;;;;;1.65;1.55;;;;;;;;;;5033763;28;20923;-65
2020/12/16 13:55:19;;;;;;;2.97;2.03;;;;;;;;;;5033540;28;20687;-65
2020/12/16 13:57:45;;;;;;;1.55;1.45;;;;;;;;;;5033403;28;20698;-65
2020/12/16 14:00:11;;;;;;;2.22;2.05;;;;;;;;;;5032980;28;20234;-66
2020/12/16 14:02:37;;;;;;;2.13;1.97;;;;;;;;;;5033413;28;20640;-65
2020/12/16 14:05:03;;;;;;;2.40;1.80;;;;;;;;;;5033533;28;20406;-65
2020/12/16 14:07:29;;;;;;;2.35;1.67;;;;;;;;;;5033283;28;20393;-65
2020/12/16 14:09:55;;;;;;;2.60;2.27;;;;;;;;;;5032780;28;20184;-65
2020/12/16 14:12:21;;;;;;;4.13;2.60;;;;;;;;;;5031977;28;20446;-65
2020/12/16 14:14:47;;;;;;;1.50;1.47;;;;;;;;;;5033104;28;20440;-65
2020/12/16 14:17:13;;;;;;;2.35;2.25;;;;;;;;;;5033220;28;20550;-65
2020/12/16 14:19:39;;;;;;;1.90;1.80;;;;;;;;;;5032768;28;20291;-65
2020/12/16 14:22:06;;;;;;;1.65;1.55;;;;;;;;;;5032742;28;20180;-65
2020/12/16 14:24:35;;;;;;;2.13;1.85;;;;;;;;;;5033117;28;20648;-66
2020/12/16 14:27:02;;;;;;;1.85;1.75;;;;;;;;;;5032890;28;20188;-65
2020/12/16 14:29:28;;;;;;;1.50;1.40;;;;;;;;;;5032815;28;20205;-65
2020/12/16 14:31:54;;;;;;;2.17;2.08;;;;;;;;;;5032729;28;20544;-65
2020/12/16 14:34:20;;;;;;;1.42;1.33;;;;;;;;;;5032782;28;20288;-65
2020/12/16 14:36:47;;;;;;;2.88;1.70;;;;;;;;;;5031643;28;20224;-65
2020/12/16 14:39:13;;;;;;;1.58;1.50;;;;;;;;;;5032218;28;20193;-66
2020/12/16 14:41:39;;;;;;;1.17;1.10;;;;;;;;;;5031825;28;20161;-65
2020/12/16 14:44:05;;;;;;;1.90;1.80;;;;;;;;;;5032201;28;20177;-65